Time;durP1;ratioP1;P1;durP2;ratioP2;P2;SDS_P1;SDS_P2;PMS_P1;PMS_P2;Temp;Humidity;BMP_temperature;BMP_pressure;BME280_temperature;BME280_humidity;BME280_pressure;Samples;Min_cycle;Max_cycle;Signal;HPM_P1;HPM_P2
2024/01/30 00:02:12;;;;;;;23.30;11.48;;;1.20;99.90;;;;;;5104057;28;20034;-71
2024/01/30 00:04:38;;;;;;;21.95;11.07;;;;;;;;;;5103848;28;20071;-69
2024/01/30 00:07:04;;;;;;;23.70;11.77;;;;;;;;;;5104340;28;20032;-67
2024/01/30 00:09:30;;;;;;;21.90;11.73;;;1.10;99.90;;;;;;5103553;28;20358;-66
2024/01/30 00:11:56;;;;;;;22.08;11.68;;;1.10;99.90;;;;;;5103722;28;20024;-66
2024/01/30 00:14:22;;;;;;;27.08;14.15;;;1.10;99.90;;;;;;5094133;28;20016;-68
2024/01/30 00:16:48;;;;;;;24.75;11.18;;;;;;;;;;5103553;28;20040;-69
2024/01/30 00:19:14;;;;;;;22.20;11.15;;;1.00;99.90;;;;;;5103240;28;20024;-72
2024/01/30 00:21:41;;;;;;;23.25;11.02;;;;;;;;;;5103439;28;20085;-71
2024/01/30 00:24:06;;;;;;;21.13;10.88;;;0.90;99.90;;;;;;5103316;28;20065;-71
2024/01/30 00:26:32;;;;;;;23.42;12.27;;;0.90;99.90;;;;;;5103455;28;20028;-71
2024/01/30 00:28:58;;;;;;;22.48;10.82;;;0.80;99.90;;;;;;5103087;28;20095;-72
2024/01/30 00:31:24;;;;;;;22.25;11.40;;;;;;;;;;5087278;28;20386;-71
2024/01/30 00:33:50;;;;;;;24.65;11.45;;;0.90;99.90;;;;;;5075626;28;20099;-71
2024/01/30 00:36:16;;;;;;;21.00;10.65;;;0.80;99.90;;;;;;5082973;28;20020;-71
2024/01/30 00:38:41;;;;;;;26.65;12.18;;;0.80;99.90;;;;;;5082783;28;20021;-71
2024/01/30 00:41:08;;;;;;;24.83;12.48;;;0.70;99.90;;;;;;5082708;28;20335;-72
2024/01/30 00:43:34;;;;;;;22.80;10.55;;;;;;;;;;5082767;28;20047;-71
2024/01/30 00:46:01;;;;;;;26.25;11.93;;;0.70;99.50;;;;;;5082441;28;20043;-71
2024/01/30 00:48:27;;;;;;;33.67;13.90;;;0.70;99.90;;;;;;5082710;28;20021;-71
2024/01/30 00:50:52;;;;;;;25.52;12.43;;;0.60;99.90;;;;;;5082197;28;20044;-71
2024/01/30 00:53:18;;;;;;;27.02;11.90;;;0.80;99.90;;;;;;5081751;28;20243;-71
2024/01/30 00:55:44;;;;;;;28.70;13.35;;;;;;;;;;5082275;28;20093;-72
2024/01/30 00:58:10;;;;;;;24.83;11.88;;;;;;;;;;5082019;28;20341;-72
2024/01/30 01:00:37;;;;;;;24.10;12.50;;;;;;;;;;5082082;28;20087;-72
2024/01/30 01:03:03;;;;;;;23.95;12.10;;;0.70;99.90;;;;;;5082247;28;20024;-72
2024/01/30 01:05:29;;;;;;;25.23;12.75;;;0.70;99.90;;;;;;5082095;28;20040;-72
2024/01/30 01:07:55;;;;;;;21.33;11.38;;;;;;;;;;5081876;28;20032;-73
2024/01/30 01:10:22;;;;;;;25.83;12.75;;;;;;;;;;5081886;28;20040;-73
2024/01/30 01:12:48;;;;;;;32.17;12.68;;;0.80;99.90;;;;;;5081849;28;20122;-70
2024/01/30 01:15:14;;;;;;;23.83;12.40;;;0.70;99.90;;;;;;5080727;28;20206;-69
2024/01/30 01:17:40;;;;;;;26.27;11.70;;;0.70;99.90;;;;;;5081923;28;20024;-70
2024/01/30 01:20:07;;;;;;;27.60;12.07;;;0.70;99.90;;;;;;5081706;28;20028;-70
2024/01/30 01:22:33;;;;;;;24.25;12.07;;;0.70;99.90;;;;;;5081456;28;20087;-68
2024/01/30 01:25:00;;;;;;;24.02;11.38;;;0.80;99.90;;;;;;5081744;28;20025;-69
2024/01/30 01:27:26;;;;;;;27.40;12.05;;;;;;;;;;5072196;28;20343;-69
2024/01/30 01:29:52;;;;;;;18.98;10.80;;;0.40;99.90;;;;;;5081457;28;20063;-69
2024/01/30 01:32:18;;;;;;;23.38;11.00;;;;;;;;;;5081405;28;20123;-70
2024/01/30 01:34:44;;;;;;;21.65;11.45;;;0.50;99.90;;;;;;5081596;28;20058;-68
2024/01/30 01:37:10;;;;;;;23.15;12.18;;;0.60;99.90;;;;;;5081319;28;20021;-68
2024/01/30 01:39:36;;;;;;;24.33;11.40;;;;;;;;;;5081593;28;20035;-68
2024/01/30 01:42:02;;;;;;;21.10;10.95;;;;;;;;;;5081552;28;20030;-68
2024/01/30 01:44:28;;;;;;;19.83;11.57;;;;;;;;;;5078255;28;20073;-68
2024/01/30 01:46:55;;;;;;;25.00;11.82;;;0.50;99.90;;;;;;5101179;28;20016;-69
2024/01/30 01:49:23;;;;;;;22.77;11.57;;;0.50;99.90;;;;;;5101496;28;20367;-68
2024/01/30 01:51:51;;;;;;;20.20;10.27;;;0.40;99.90;;;;;;5101420;28;20028;-69
2024/01/30 01:54:17;;;;;;;24.38;12.35;;;0.20;99.90;;;;;;5101678;28;20032;-68
2024/01/30 01:56:43;;;;;;;23.45;12.70;;;0.30;99.90;;;;;;5101189;28;20343;-68
2024/01/30 01:59:09;;;;;;;26.33;12.30;;;0.40;99.90;;;;;;5100239;28;20016;-68
2024/01/30 02:01:38;;;;;;;23.40;12.13;;;0.40;99.90;;;;;;5101400;28;20034;-68
2024/01/30 02:04:04;;;;;;;24.20;11.82;;;0.40;99.90;;;;;;5100744;28;20358;-68
2024/01/30 02:06:30;;;;;;;23.05;12.05;;;;;;;;;;5101371;28;20066;-68
2024/01/30 02:08:56;;;;;;;26.75;12.93;;;;;;;;;;5101408;28;20070;-68
2024/01/30 02:11:23;;;;;;;27.25;12.98;;;0.30;99.90;;;;;;5101197;28;20039;-68
2024/01/30 02:13:50;;;;;;;25.58;13.13;;;;;;;;;;5101219;28;20055;-68
2024/01/30 02:16:17;;;;;;;28.17;12.77;;;0.30;99.90;;;;;;5101175;28;20024;-69
2024/01/30 02:18:47;;;;;;;26.02;12.98;;;;;;;;;;5101111;28;20339;-68
2024/01/30 02:21:13;;;;;;;27.15;12.13;;;;;;;;;;5101007;28;20028;-68
2024/01/30 02:23:40;;;;;;;26.92;12.48;;;0.20;99.90;;;;;;5101233;28;20012;-68
2024/01/30 02:26:07;;;;;;;26.00;13.68;;;;;;;;;;5091419;28;20035;-68
2024/01/30 02:28:33;;;;;;;29.80;13.27;;;;;;;;;;5101097;28;20028;-66
2024/01/30 02:30:59;;;;;;;26.65;12.75;;;;;;;;;;5084580;28;20300;-66
2024/01/30 02:33:24;;;;;;;28.88;12.93;;;0.60;99.90;;;;;;5068321;28;20017;-67
2024/01/30 02:35:50;;;;;;;28.52;12.23;;;0.20;99.90;;;;;;5060662;28;20029;-68
2024/01/30 02:38:16;;;;;;;22.40;11.93;;;0.40;99.90;;;;;;5060576;28;20059;-68
2024/01/30 02:40:43;;;;;;;27.73;13.25;;;0.30;99.90;;;;;;5060845;28;20070;-68
2024/01/30 02:43:09;;;;;;;28.58;12.95;;;0.20;99.90;;;;;;5060879;28;20036;-71
2024/01/30 02:45:34;;;;;;;30.20;13.45;;;0.20;99.90;;;;;;5060635;28;20295;-71
2024/01/30 02:48:00;;;;;;;25.25;12.50;;;0.10;99.90;;;;;;5061030;28;20016;-72
2024/01/30 02:50:26;;;;;;;26.33;12.52;;;0.20;99.90;;;;;;5060597;28;20052;-73
2024/01/30 02:52:51;;;;;;;30.15;12.60;;;0.20;99.90;;;;;;5060593;28;20096;-74
2024/01/30 02:55:18;;;;;;;28.05;14.05;;;;;;;;;;5061080;28;20037;-73
2024/01/30 02:57:44;;;;;;;30.45;12.15;;;;;;;;;;5061289;28;20193;-72
2024/01/30 03:00:10;;;;;;;24.30;12.80;;;0.20;99.90;;;;;;5060792;28;20144;-71
2024/01/30 03:02:36;;;;;;;25.90;13.18;;;0.10;99.90;;;;;;5060704;28;20017;-71
2024/01/30 03:05:03;;;;;;;26.23;11.73;;;;;;;;;;5060561;28;20514;-71
2024/01/30 03:07:29;;;;;;;29.02;13.20;;;0.10;99.90;;;;;;5061099;28;20070;-70
2024/01/30 03:09:55;;;;;;;27.13;14.88;;;0.10;99.90;;;;;;5060867;28;20049;-71
2024/01/30 03:12:23;;;;;;;43.05;19.58;;;0.00;99.90;;;;;;5061071;28;20084;-70
2024/01/30 03:14:52;;;;;;;40.30;18.95;;;;;;;;;;5061789;28;20033;-71
2024/01/30 03:17:18;;;;;;;41.92;20.63;;;;;;;;;;5064939;28;20096;-71
2024/01/30 03:19:44;;;;;;;42.30;21.90;;;;;;;;;;5064924;28;20029;-70
2024/01/30 03:22:10;;;;;;;42.15;19.40;;;-0.30;99.90;;;;;;5064592;28;20317;-71
2024/01/30 03:24:36;;;;;;;39.50;17.75;;;-0.40;99.90;;;;;;5064682;28;20033;-72
2024/01/30 03:27:02;;;;;;;31.77;15.65;;;;;;;;;;5064622;28;20013;-71
2024/01/30 03:29:27;;;;;;;35.65;16.98;;;-0.50;99.90;;;;;;5064497;28;20127;-71
2024/01/30 03:31:54;;;;;;;34.83;16.85;;;;;;;;;;5063745;28;20049;-69
2024/01/30 03:34:19;;;;;;;34.00;15.77;;;-0.50;99.90;;;;;;5063842;28;20023;-69
2024/01/30 03:36:45;;;;;;;33.47;16.33;;;-0.50;99.90;;;;;;5063896;28;20296;-69
2024/01/30 03:39:11;;;;;;;30.08;13.93;;;-0.50;99.90;;;;;;5062568;28;20356;-68
2024/01/30 03:41:36;;;;;;;31.00;13.93;;;-0.60;99.90;;;;;;5063934;28;20052;-67
2024/01/30 03:44:02;;;;;;;24.17;12.27;;;-0.40;99.90;;;;;;5063658;28;20017;-67
2024/01/30 03:46:28;;;;;;;27.48;12.20;;;-0.40;99.90;;;;;;5063724;28;20033;-67
2024/01/30 03:48:54;;;;;;;23.52;11.75;;;;;;;;;;5063644;28;20032;-67
2024/01/30 03:51:20;;;;;;;24.55;12.02;;;;;;;;;;5063547;28;20036;-67
2024/01/30 03:53:46;;;;;;;27.35;12.43;;;-0.50;99.90;;;;;;5063929;28;20029;-67
2024/01/30 03:56:13;;;;;;;27.20;11.68;;;-0.50;99.90;;;;;;5063600;28;20027;-70
2024/01/30 03:58:39;;;;;;;23.58;11.15;;;;;;;;;;5063434;28;20317;-71
2024/01/30 04:01:05;;;;;;;25.45;12.50;;;;;;;;;;5063214;28;20032;-69
2024/01/30 04:03:31;;;;;;;27.52;13.18;;;-0.50;99.90;;;;;;5063461;28;20017;-71
2024/01/30 04:05:57;;;;;;;26.58;12.82;;;;;;;;;;5063357;28;20127;-70
2024/01/30 04:08:23;;;;;;;26.90;12.52;;;-0.40;99.90;;;;;;5063510;28;20075;-70
2024/01/30 04:10:49;;;;;;;29.10;12.85;;;;;;;;;;5063345;28;20507;-71
2024/01/30 04:13:15;;;;;;;31.10;13.25;;;-0.60;99.90;;;;;;5063034;28;20103;-71
2024/01/30 04:15:40;;;;;;;26.15;13.07;;;-0.60;99.90;;;;;;5063032;28;20029;-69
2024/01/30 04:18:06;;;;;;;26.20;13.20;;;-0.60;99.90;;;;;;5062991;28;20017;-69
2024/01/30 04:20:32;;;;;;;25.75;13.02;;;-0.70;99.90;;;;;;5062830;28;20088;-68
2024/01/30 04:22:57;;;;;;;33.70;16.10;;;-0.70;99.90;;;;;;5062876;28;20032;-69
2024/01/30 04:25:23;;;;;;;33.35;14.40;;;-0.60;99.90;;;;;;5069538;28;20360;-68
2024/01/30 04:27:49;;;;;;;30.10;14.02;;;;;;;;;;5103240;28;20008;-72
2024/01/30 04:30:16;;;;;;;35.13;15.82;;;;;;;;;;5103107;28;20028;-72
2024/01/30 04:32:43;;;;;;;36.05;15.40;;;-0.50;99.90;;;;;;5102750;28;20055;-72
2024/01/30 04:35:09;;;;;;;29.13;14.23;;;;;;;;;;5102999;28;20207;-72
2024/01/30 04:37:35;;;;;;;32.80;15.68;;;;;;;;;;5101632;28;20031;-72
2024/01/30 04:40:02;;;;;;;32.85;15.32;;;;;;;;;;5101678;28;20055;-73
2024/01/30 04:42:29;;;;;;;28.40;13.85;;;-0.60;99.90;;;;;;5102921;28;20016;-72
2024/01/30 04:44:55;;;;;;;31.75;14.98;;;;;;;;;;5102703;28;20336;-72
2024/01/30 04:47:21;;;;;;;30.75;14.95;;;;;;;;;;5102733;28;20019;-71
2024/01/30 04:49:47;;;;;;;30.73;14.55;;;-0.60;99.90;;;;;;5102887;28;20019;-71
2024/01/30 04:52:13;;;;;;;28.92;14.45;;;-0.80;99.90;;;;;;5102791;28;20016;-71
2024/01/30 04:54:39;;;;;;;31.85;14.75;;;;;;;;;;5102824;28;20312;-72
2024/01/30 04:57:08;;;;;;;33.55;15.73;;;-0.90;99.90;;;;;;5102758;28;20023;-70
2024/01/30 04:59:34;;;;;;;;;;;-0.90;99.90;;;;;;5102942;28;20020;-71
2024/01/30 05:01:59;;;;;;;33.10;15.68;;;-0.90;99.90;;;;;;5102659;28;19927;-68
2024/01/30 05:04:25;;;;;;;29.70;14.52;;;-0.90;99.90;;;;;;5102279;28;20089;-70
2024/01/30 05:06:51;;;;;;;35.80;14.93;;;;;;;;;;5102448;28;20114;-68
2024/01/30 05:09:17;;;;;;;32.35;15.35;;;;;;;;;;5102314;28;20089;-67
2024/01/30 05:11:42;;;;;;;33.83;15.90;;;-0.90;99.90;;;;;;5102115;28;20230;-71
2024/01/30 05:14:09;;;;;;;37.60;16.17;;;;;;;;;;5101263;28;20069;-67
2024/01/30 05:16:35;;;;;;;31.27;15.40;;;-0.80;99.90;;;;;;5065243;28;20029;-69
2024/01/30 05:19:00;;;;;;;31.27;15.27;;;-0.80;99.90;;;;;;5082058;28;20098;-70
2024/01/30 05:21:26;;;;;;;36.45;14.57;;;-0.90;99.90;;;;;;5075428;28;20032;-70
2024/01/30 05:23:52;;;;;;;28.52;14.05;;;;;;;;;;5061974;28;20020;-70
2024/01/30 05:26:18;;;;;;;36.20;15.52;;;-1.10;99.90;;;;;;5060474;28;20434;-69
2024/01/30 05:28:46;;;;;;;36.97;17.80;;;-1.00;99.90;;;;;;5061595;28;20021;-70
2024/01/30 05:31:12;;;;;;;33.78;18.17;;;;;;;;;;5080063;28;20631;-70
2024/01/30 05:33:38;;;;;;;43.35;19.15;;;-1.00;99.90;;;;;;5081512;28;20016;-69
2024/01/30 05:36:04;;;;;;;41.25;19.45;;;;;;;;;;5081342;28;20024;-70
2024/01/30 05:38:31;;;;;;;37.33;18.13;;;;;;;;;;5081135;28;20013;-70
2024/01/30 05:40:58;;;;;;;38.95;17.90;;;;;;;;;;5062482;28;20352;-70
2024/01/30 05:43:24;;;;;;;35.22;18.40;;;-1.20;99.90;;;;;;5061467;28;20036;-69
2024/01/30 05:45:50;;;;;;;41.08;17.27;;;;;;;;;;5061325;28;20032;-69
2024/01/30 05:48:15;;;;;;;30.70;14.35;;;-1.30;99.90;;;;;;5061217;28;20013;-67
2024/01/30 05:50:41;;;;;;;34.17;14.70;;;-1.30;99.90;;;;;;5061231;28;20036;-69
2024/01/30 05:53:07;;;;;;;50.50;21.23;;;;;;;;;;5060687;28;20332;-70
2024/01/30 05:55:33;;;;;;;34.38;14.85;;;;;;;;;;5060484;28;20079;-70
2024/01/30 05:57:59;;;;;;;27.73;12.40;;;-1.30;99.90;;;;;;5060758;28;20296;-70
2024/01/30 06:00:24;;;;;;;28.15;12.30;;;-1.30;99.90;;;;;;5070741;28;20025;-70
2024/01/30 06:02:50;;;;;;;33.25;13.05;;;-1.30;99.90;;;;;;5081374;28;20020;-70
2024/01/30 06:05:16;;;;;;;37.55;16.77;;;-1.20;99.90;;;;;;5080238;28;20032;-70
2024/01/30 06:07:41;;;;;;;40.47;19.20;;;-1.50;99.90;;;;;;5081411;28;20021;-68
2024/01/30 06:10:08;;;;;;;40.70;20.67;;;;;;;;;;5081172;28;20251;-68
2024/01/30 06:12:34;;;;;;;40.78;19.48;;;;;;;;;;5081226;28;20028;-68
2024/01/30 06:15:00;;;;;;;40.88;17.42;;;;;;;;;;5073436;28;20021;-67
2024/01/30 06:17:27;;;;;;;26.23;13.43;;;;;;;;;;5061042;28;20027;-68
2024/01/30 06:19:53;;;;;;;27.10;12.55;;;;;;;;;;5061009;28;20093;-68
2024/01/30 06:22:19;;;;;;;29.80;12.95;;;;;;;;;;5079853;28;20032;-68
2024/01/30 06:24:47;;;;;;;31.92;12.90;;;;;;;;;;5080844;28;20037;-68
2024/01/30 06:27:13;;;;;;;24.65;11.10;;;;;;;;;;5088625;28;20024;-68
2024/01/30 06:29:40;;;;;;;26.27;13.27;;;-1.00;99.90;;;;;;5101047;28;20031;-67
2024/01/30 06:32:06;;;;;;;27.33;12.15;;;-0.90;99.90;;;;;;5100950;28;20066;-69
2024/01/30 06:34:31;;;;;;;31.92;12.57;;;-0.90;99.90;;;;;;5101100;28;20024;-67
2024/01/30 06:36:57;;;;;;;31.55;12.48;;;-1.00;99.90;;;;;;5101050;28;20015;-67
2024/01/30 06:39:23;;;;;;;23.63;11.80;;;;;;;;;;5101107;28;20335;-67
2024/01/30 06:41:49;;;;;;;27.33;12.07;;;;;;;;;;5101153;28;20020;-66
2024/01/30 06:44:15;;;;;;;27.08;12.48;;;-0.50;99.90;;;;;;5101130;28;20027;-66
2024/01/30 06:46:41;;;;;;;25.77;11.80;;;-0.30;99.90;;;;;;5100996;28;20212;-66
2024/01/30 06:49:06;;;;;;;28.20;12.68;;;-0.30;99.90;;;;;;5101938;28;20028;-66
2024/01/30 06:51:32;;;;;;;27.55;14.02;;;-0.60;99.90;;;;;;5105069;28;20016;-66
2024/01/30 06:53:58;;;;;;;26.80;12.80;;;-0.40;99.90;;;;;;5105057;28;20027;-67
2024/01/30 06:56:24;;;;;;;30.23;13.55;;;;;;;;;;5104958;28;20417;-67
2024/01/30 06:58:50;;;;;;;29.02;13.85;;;-0.20;99.90;;;;;;5104740;28;20096;-68
2024/01/30 07:01:16;;;;;;;30.55;14.05;;;;;;;;;;5103601;28;20039;-68
2024/01/30 07:03:43;;;;;;;33.28;14.40;;;;;;;;;;5103461;28;20192;-68
2024/01/30 07:06:10;;;;;;;29.10;14.38;;;-1.30;99.90;;;;;;5103306;28;20035;-67
2024/01/30 07:08:38;;;;;;;34.10;14.50;;;;;;;;;;5103195;28;20216;-67
2024/01/30 07:11:04;;;;;;;30.55;13.95;;;;;;;;;;5103828;28;20039;-67
2024/01/30 07:13:30;;;;;;;28.98;14.35;;;;;;;;;;5103759;28;20317;-67
2024/01/30 07:15:56;;;;;;;31.08;17.02;;;;;;;;;;5104578;28;20023;-67
2024/01/30 07:18:22;;;;;;;43.85;21.35;;;0.30;99.90;;;;;;5104574;28;20016;-67
2024/01/30 07:20:49;;;;;;;41.97;23.15;;;;;;;;;;5104265;28;20031;-68
2024/01/30 07:23:17;;;;;;;55.10;28.00;;;0.30;99.90;;;;;;5104246;28;20324;-68
2024/01/30 07:25:43;;;;;;;61.38;28.88;;;0.30;99.90;;;;;;5104444;28;20042;-68
2024/01/30 07:28:10;;;;;;;54.55;25.77;;;;;;;;;;5104225;28;20221;-67
2024/01/30 07:30:36;;;;;;;45.78;23.15;;;;;;;;;;5104205;28;20102;-67
2024/01/30 07:33:02;;;;;;;41.58;20.58;;;;;;;;;;5104021;28;20023;-67
2024/01/30 07:35:28;;;;;;;37.35;16.55;;;0.50;99.90;;;;;;5103371;28;20306;-67
2024/01/30 07:37:54;;;;;;;29.33;14.63;;;0.60;99.90;;;;;;5103826;28;20405;-67
2024/01/30 07:40:20;;;;;;;39.60;17.45;;;;;;;;;;5103998;28;20027;-67
2024/01/30 07:42:46;;;;;;;35.95;16.15;;;;;;;;;;5103808;28;20020;-67
2024/01/30 07:45:12;;;;;;;35.80;15.27;;;0.90;99.90;;;;;;5103790;28;20039;-67
2024/01/30 07:47:38;;;;;;;26.40;15.10;;;;;;;;;;5104014;28;20020;-67
2024/01/30 07:50:04;;;;;;;31.60;15.93;;;1.20;99.90;;;;;;5103895;28;20320;-67
2024/01/30 07:52:30;;;;;;;31.80;15.73;;;;;;;;;;5103768;28;20035;-67
2024/01/30 07:54:56;;;;;;;29.48;15.13;;;;;;;;;;5104028;28;20028;-67
2024/01/30 07:57:22;;;;;;;29.70;15.80;;;;;;;;;;5103974;28;20087;-68
2024/01/30 07:59:48;;;;;;;29.73;15.35;;;1.60;99.90;;;;;;5103964;28;20016;-67
2024/01/30 08:02:13;;;;;;;29.77;14.95;;;1.70;99.90;;;;;;5101802;28;20110;-67
2024/01/30 08:04:39;;;;;;;29.85;14.85;;;1.70;99.90;;;;;;5103900;28;20201;-67
2024/01/30 08:07:05;;;;;;;27.90;15.23;;;;;;;;;;5103460;28;20354;-67
2024/01/30 08:09:31;;;;;;;29.83;15.25;;;;;;;;;;5103663;28;20028;-68
2024/01/30 08:11:57;;;;;;;37.75;18.88;;;2.00;99.90;;;;;;5103590;28;20027;-67
2024/01/30 08:14:23;;;;;;;47.42;21.58;;;2.20;99.90;;;;;;5103528;28;20016;-67
2024/01/30 08:16:48;;;;;;;63.42;28.70;;;2.20;99.90;;;;;;5103527;28;20083;-67
2024/01/30 08:19:17;;;;;;;79.18;34.20;;;2.40;99.90;;;;;;5103657;28;20100;-67
2024/01/30 08:21:43;;;;;;;114.30;44.13;;;2.60;99.90;;;;;;5103378;28;20069;-67
2024/01/30 08:24:09;;;;;;;98.15;40.13;;;2.50;99.90;;;;;;5103665;28;20020;-67
2024/01/30 08:26:34;;;;;;;102.80;41.83;;;2.70;99.90;;;;;;5096124;28;20035;-68
2024/01/30 08:29:01;;;;;;;118.93;49.33;;;2.60;99.90;;;;;;5101688;28;20012;-67
2024/01/30 08:31:27;;;;;;;108.30;46.03;;;2.70;99.90;;;;;;5103061;28;20056;-67
2024/01/30 08:33:53;;;;;;;82.82;36.50;;;2.90;99.90;;;;;;5103359;28;20061;-66
2024/01/30 08:36:19;;;;;;;76.75;33.28;;;2.90;99.90;;;;;;5103225;28;20020;-68
2024/01/30 08:38:45;;;;;;;65.57;31.80;;;;;;;;;;5103258;28;20047;-68
2024/01/30 08:41:11;;;;;;;60.33;28.20;;;;;;;;;;5103074;28;20031;-69
2024/01/30 08:43:37;;;;;;;48.40;21.95;;;3.10;99.90;;;;;;5103061;28;20339;-67
2024/01/30 08:46:03;;;;;;;36.35;19.15;;;3.30;99.90;;;;;;5101718;28;20036;-67
2024/01/30 08:48:29;;;;;;;38.40;18.05;;;3.40;99.90;;;;;;5103152;28;20012;-67
2024/01/30 08:50:55;;;;;;;29.17;15.88;;;;;;;;;;5102890;28;20079;-68
2024/01/30 08:53:21;;;;;;;27.15;13.98;;;;;;;;;;5102760;28;20016;-68
2024/01/30 08:55:47;;;;;;;26.30;13.25;;;4.00;99.90;;;;;;5102878;28;20020;-67
2024/01/30 08:58:13;;;;;;;27.70;14.25;;;;;;;;;;5102913;28;20358;-68
2024/01/30 09:00:38;;;;;;;22.85;13.70;;;3.80;99.90;;;;;;5102711;28;20016;-70
2024/01/30 09:03:04;;;;;;;18.75;11.13;;;4.30;99.90;;;;;;5102550;28;20109;-67
2024/01/30 09:05:30;;;;;;;23.33;12.25;;;;;;;;;;5102441;28;20086;-67
2024/01/30 09:07:56;;;;;;;20.48;11.50;;;4.20;99.00;;;;;;5099883;28;20369;-68
2024/01/30 09:10:22;;;;;;;25.60;12.07;;;4.50;99.90;;;;;;5073348;28;20025;-68
2024/01/30 09:12:49;;;;;;;23.58;12.65;;;;;;;;;;5061038;28;20024;-67
2024/01/30 09:15:14;;;;;;;22.00;12.55;;;4.50;98.10;;;;;;5074159;28;20024;-68
2024/01/30 09:17:41;;;;;;;23.83;13.35;;;;;;;;;;5082017;28;20196;-67
2024/01/30 09:20:07;;;;;;;22.83;12.63;;;4.80;99.90;;;;;;5082156;28;20088;-68
2024/01/30 09:22:33;;;;;;;21.67;12.52;;;;;;;;;;5081881;28;20086;-68
2024/01/30 09:24:59;;;;;;;26.95;14.68;;;5.00;99.90;;;;;;5081676;28;20343;-68
2024/01/30 09:27:24;;;;;;;28.42;15.45;;;4.90;99.90;;;;;;5069894;28;20021;-68
2024/01/30 09:29:50;;;;;;;22.40;11.75;;;;;;;;;;5073341;28;20194;-68
2024/01/30 09:32:17;;;;;;;21.77;12.32;;;5.00;99.90;;;;;;5081484;28;20052;-68
2024/01/30 09:34:43;;;;;;;24.73;14.48;;;5.00;93.20;;;;;;5081718;28;20051;-69
2024/01/30 09:37:09;;;;;;;21.45;13.15;;;5.00;96.50;;;;;;5081697;28;20308;-68
2024/01/30 09:39:34;;;;;;;24.02;12.75;;;5.10;99.90;;;;;;5081609;28;20243;-69
2024/01/30 09:42:26;;;;;;;21.60;12.98;;;4.90;99.90;;;;;;5081352;28;20021;-69
2024/01/30 09:44:53;;;;;;;24.50;13.63;;;5.00;99.90;;;;;;5081079;28;20044;-69
2024/01/30 09:47:19;;;;;;;20.67;11.38;;;;;;;;;;5081392;28;20359;-69
2024/01/30 09:49:45;;;;;;;19.30;10.82;;;5.30;99.90;;;;;;5081432;28;20028;-69
2024/01/30 09:52:11;;;;;;;28.75;14.80;;;5.10;99.80;;;;;;5081390;28;20013;-69
2024/01/30 09:54:38;;;;;;;20.75;11.93;;;5.30;90.80;;;;;;5081290;28;20036;-70
2024/01/30 09:57:05;;;;;;;25.10;13.32;;;;;;;;;;5081314;28;20040;-69
2024/01/30 09:59:31;;;;;;;28.27;14.32;;;5.40;99.10;;;;;;5081520;28;20091;-69
2024/01/30 10:01:57;;;;;;;29.58;15.20;;;5.30;99.00;;;;;;5081173;28;20016;-68
2024/01/30 10:04:23;;;;;;;19.83;10.20;;;5.00;98.10;;;;;;5081062;28;20028;-68
2024/01/30 10:06:50;;;;;;;16.10;9.60;;;5.40;86.50;;;;;;5081101;28;20265;-68
2024/01/30 10:09:17;;;;;;;27.98;12.82;;;5.40;97.80;;;;;;5081397;28;20055;-69
2024/01/30 10:11:43;;;;;;;18.35;10.27;;;5.60;97.40;;;;;;5081193;28;20021;-68
2024/01/30 10:14:09;;;;;;;21.52;11.52;;;5.40;92.20;;;;;;5081034;28;20047;-68
2024/01/30 10:16:35;;;;;;;20.23;11.23;;;5.60;92.80;;;;;;5081096;28;20039;-68
2024/01/30 10:19:02;;;;;;;19.73;11.60;;;;;;;;;;5080941;28;20017;-69
2024/01/30 10:21:29;;;;;;;16.75;10.30;;;6.30;95.40;;;;;;5080892;28;20024;-68
2024/01/30 10:23:55;;;;;;;15.45;8.50;;;;;;;;;;5080945;28;20024;-72
2024/01/30 10:26:22;;;;;;;17.13;9.40;;;;;;;;;;5071881;28;20060;-71
2024/01/30 10:28:48;;;;;;;12.95;7.80;;;5.80;80.20;;;;;;5060910;28;20020;-72
2024/01/30 10:31:18;;;;;;;16.55;8.38;;;6.00;86.80;;;;;;5060818;28;20111;-71
2024/01/30 10:33:45;;;;;;;15.68;9.23;;;6.00;78.90;;;;;;5059854;28;20024;-72
2024/01/30 10:36:15;;;;;;;18.40;10.63;;;6.30;93.40;;;;;;5060740;28;20260;-72
2024/01/30 10:38:43;;;;;;;18.17;10.32;;;6.30;93.40;;;;;;5061153;28;20013;-72
2024/01/30 10:41:13;;;;;;;19.33;11.13;;;6.40;77.90;;;;;;5060783;28;20206;-73
2024/01/30 10:43:50;;;;;;;20.63;11.45;;;6.50;77.40;;;;;;5060912;28;20025;-72
2024/01/30 10:46:21;;;;;;;17.83;10.23;;;6.50;93.10;;;;;;5060758;28;20040;-73
2024/01/30 10:48:56;;;;;;;17.65;11.32;;;6.50;92.80;;;;;;5060901;28;20020;-72
2024/01/30 10:51:23;;;;;;;17.15;10.13;;;6.60;76.20;;;;;;5060776;28;20016;-72
2024/01/30 10:53:50;;;;;;;16.30;10.05;;;6.60;75.30;;;;;;5060989;28;20191;-73
2024/01/30 10:56:16;;;;;;;16.75;11.05;;;6.50;87.40;;;;;;5060948;28;20033;-73
2024/01/30 10:58:42;;;;;;;18.85;11.07;;;6.60;91.80;;;;;;5060637;28;20305;-73
2024/01/30 11:01:09;;;;;;;20.35;10.75;;;7.00;87.70;;;;;;5060570;28;20025;-73
2024/01/30 11:03:36;;;;;;;19.63;10.82;;;6.80;73.50;;;;;;5079371;28;20329;-73
2024/01/30 11:06:03;;;;;;;22.75;10.80;;;6.80;74.10;;;;;;5071635;28;20361;-73
2024/01/30 11:08:31;;;;;;;16.65;9.93;;;6.60;77.20;;;;;;5079606;28;20044;-71
2024/01/30 11:10:58;;;;;;;21.90;11.68;;;6.60;91.40;;;;;;5079073;28;20070;-71
2024/01/30 11:13:31;;;;;;;19.17;12.07;;;6.70;91.50;;;;;;5080092;28;20028;-71
2024/01/30 11:16:04;;;;;;;23.20;11.68;;;7.10;91.60;;;;;;5079105;28;20028;-71
2024/01/30 11:18:31;;;;;;;18.08;10.15;;;6.70;78.20;;;;;;5079515;28;20194;-72
2024/01/30 11:21:00;;;;;;;18.38;11.40;;;6.60;91.30;;;;;;5078905;28;20024;-72
2024/01/30 11:23:26;;;;;;;20.60;11.15;;;;;;;;;;5079138;28;20028;-71
2024/01/30 11:25:57;;;;;;;14.90;9.50;;;6.80;81.90;;;;;;5078967;28;20067;-72
2024/01/30 11:28:23;;;;;;;18.25;11.07;;;7.00;73.40;;;;;;5078403;28;20012;-71
2024/01/30 11:30:52;;;;;;;17.88;9.73;;;;;;;;;;5078323;28;20044;-72
2024/01/30 11:33:32;;;;;;;16.33;10.25;;;7.00;71.80;;;;;;5079166;28;20203;-71
2024/01/30 11:36:02;;;;;;;17.45;9.55;;;6.90;79.90;;;;;;5081278;28;20020;-72
2024/01/30 11:38:28;;;;;;;14.65;8.63;;;6.90;71.50;;;;;;5084181;28;20040;-71
2024/01/30 11:40:57;;;;;;;15.52;9.45;;;7.00;90.00;;;;;;5083880;28;20212;-71
2024/01/30 11:43:23;;;;;;;17.38;10.07;;;6.80;80.40;;;;;;5083806;28;20578;-73
2024/01/30 11:45:49;;;;;;;18.83;8.10;;;7.00;90.40;;;;;;5083817;28;20055;-71
2024/01/30 11:48:15;;;;;;;17.73;8.77;;;7.00;90.00;;;;;;5083832;28;20259;-71
2024/01/30 11:50:41;;;;;;;15.32;9.02;;;;;;;;;;5083494;28;20064;-73
2024/01/30 11:53:09;;;;;;;26.48;10.15;;;7.00;70.70;;;;;;5083359;28;20021;-71
2024/01/30 11:55:36;;;;;;;16.10;10.68;;;6.90;90.00;;;;;;5083619;28;20035;-72
2024/01/30 11:58:04;;;;;;;17.15;10.43;;;;;;;;;;5083762;28;20082;-72
2024/01/30 12:00:30;;;;;;;13.55;7.03;;;6.80;89.10;;;;;;5083753;28;20024;-71
2024/01/30 12:02:56;;;;;;;14.95;7.53;;;6.90;68.10;;;;;;5083606;28;20024;-72
2024/01/30 12:05:23;;;;;;;9.95;7.57;;;7.00;68.10;;;;;;5083586;28;20233;-72
2024/01/30 12:07:49;;;;;;;16.67;8.55;;;7.00;84.60;;;;;;5083454;28;20012;-72
2024/01/30 12:10:15;;;;;;;10.45;6.50;;;7.10;66.60;;;;;;5083616;28;20123;-72
2024/01/30 12:12:47;;;;;;;10.75;5.43;;;7.50;86.40;;;;;;5083298;28;20079;-72
2024/01/30 12:15:14;;;;;;;13.40;6.50;;;7.30;84.60;;;;;;5083269;28;20193;-72
2024/01/30 12:17:40;;;;;;;11.18;7.43;;;7.20;84.60;;;;;;5083425;28;20313;-72
2024/01/30 12:20:06;;;;;;;12.90;6.85;;;7.20;84.90;;;;;;5083153;28;20040;-71
2024/01/30 12:22:36;;;;;;;13.05;7.32;;;7.10;81.90;;;;;;5083096;28;20024;-71
2024/01/30 12:25:01;;;;;;;12.73;7.53;;;7.40;84.50;;;;;;5083236;28;20036;-71
2024/01/30 12:27:28;;;;;;;14.45;7.18;;;;;;;;;;5083504;28;20238;-71
2024/01/30 12:30:00;;;;;;;12.50;7.22;;;7.30;79.20;;;;;;5081765;28;20301;-71
2024/01/30 12:32:26;;;;;;;12.57;7.57;;;7.40;83.40;;;;;;5082976;28;20052;-71
2024/01/30 12:34:56;;;;;;;11.48;6.20;;;7.50;65.20;;;;;;5083020;28;20025;-71
2024/01/30 12:37:24;;;;;;;9.20;6.63;;;7.80;83.50;;;;;;5083108;28;20028;-71
2024/01/30 12:39:53;;;;;;;11.17;6.70;;;7.50;63.60;;;;;;5082802;28;20066;-72
2024/01/30 12:42:21;;;;;;;10.35;7.00;;;7.60;81.20;;;;;;5083027;28;20028;-71
2024/01/30 12:44:47;;;;;;;13.52;7.57;;;7.50;81.80;;;;;;5082945;28;20056;-71
2024/01/30 12:47:15;;;;;;;15.13;7.57;;;7.80;72.10;;;;;;5081305;28;20024;-71
2024/01/30 12:49:42;;;;;;;11.35;7.00;;;8.20;81.50;;;;;;5082747;28;20021;-72
2024/01/30 12:52:08;;;;;;;12.15;7.38;;;8.20;80.60;;;;;;5082498;28;20028;-72
2024/01/30 12:54:34;;;;;;;13.38;8.07;;;8.10;65.30;;;;;;5082822;28;20063;-73
2024/01/30 12:57:00;;;;;;;9.00;7.18;;;9.00;65.90;;;;;;5082639;28;20016;-74
2024/01/30 12:59:25;;;;;;;9.93;7.22;;;10.30;63.80;;;;;;5082680;28;20016;-74
2024/01/30 13:01:51;;;;;;;10.40;6.50;;;11.60;61.00;;;;;;5082500;28;20051;-74
2024/01/30 13:04:17;;;;;;;12.35;8.18;;;12.90;57.80;;;;;;5082348;28;20078;-74